sensor_id;sensor_type;location;lat;lon;timestamp;pressure;altitude;pressure_sealevel;temperature;humidity
61618;BME280;47518;51.776;9.370;2023-03-04T00:02:10;100971.41;;;3.08;80.57
61618;BME280;47518;51.776;9.370;2023-03-04T00:04:38;100969.25;;;3.13;80.53
61618;BME280;47518;51.776;9.370;2023-03-04T00:07:10;100960.84;;;3.18;80.53
61618;BME280;47518;51.776;9.370;2023-03-04T00:09:36;100954.50;;;3.19;81.39
61618;BME280;47518;51.776;9.370;2023-03-04T00:12:02;100965.97;;;3.21;82.19
61618;BME280;47518;51.776;9.370;2023-03-04T00:14:27;100961.03;;;3.28;81.70
61618;BME280;47518;51.776;9.370;2023-03-04T00:16:53;100966.22;;;3.18;81.48
61618;BME280;47518;51.776;9.370;2023-03-04T00:19:18;100967.06;;;3.18;81.94
61618;BME280;47518;51.776;9.370;2023-03-04T00:21:43;100962.38;;;3.33;80.37
61618;BME280;47518;51.776;9.370;2023-03-04T00:24:09;100961.63;;;3.07;80.68
61618;BME280;47518;51.776;9.370;2023-03-04T00:26:37;100964.63;;;2.79;81.39
61618;BME280;47518;51.776;9.370;2023-03-04T00:29:02;100955.16;;;2.73;81.78
61618;BME280;47518;51.776;9.370;2023-03-04T00:31:27;100960.94;;;2.92;81.28
61618;BME280;47518;51.776;9.370;2023-03-04T00:33:53;100970.91;;;3.03;81.22
61618;BME280;47518;51.776;9.370;2023-03-04T00:36:18;100948.63;;;3.14;79.98
61618;BME280;47518;51.776;9.370;2023-03-04T00:38:44;100952.31;;;3.24;79.67
61618;BME280;47518;51.776;9.370;2023-03-04T00:41:09;100964.22;;;3.33;80.32
61618;BME280;47518;51.776;9.370;2023-03-04T00:43:38;100951.75;;;3.32;79.70
61618;BME280;47518;51.776;9.370;2023-03-04T00:46:03;100959.81;;;3.32;79.26
61618;BME280;47518;51.776;9.370;2023-03-04T00:48:29;100954.66;;;3.29;80.01
61618;BME280;47518;51.776;9.370;2023-03-04T00:50:54;100949.41;;;3.27;80.89
61618;BME280;47518;51.776;9.370;2023-03-04T00:53:20;100959.88;;;3.43;79.97
61618;BME280;47518;51.776;9.370;2023-03-04T00:55:51;100957.91;;;3.45;80.44
61618;BME280;47518;51.776;9.370;2023-03-04T00:58:19;100951.69;;;3.44;80.16
61618;BME280;47518;51.776;9.370;2023-03-04T01:00:47;100954.09;;;3.36;80.06
61618;BME280;47518;51.776;9.370;2023-03-04T01:03:13;100953.28;;;3.23;80.49
61618;BME280;47518;51.776;9.370;2023-03-04T01:05:38;100942.59;;;3.10;81.29
61618;BME280;47518;51.776;9.370;2023-03-04T01:08:04;100949.13;;;3.19;81.10
61618;BME280;47518;51.776;9.370;2023-03-04T01:10:30;100949.19;;;3.30;80.54
61618;BME280;47518;51.776;9.370;2023-03-04T01:12:55;100948.09;;;3.33;80.56
61618;BME280;47518;51.776;9.370;2023-03-04T01:15:21;100950.09;;;3.18;80.14
61618;BME280;47518;51.776;9.370;2023-03-04T01:17:46;100936.91;;;3.15;81.30
61618;BME280;47518;51.776;9.370;2023-03-04T01:20:12;100943.56;;;3.33;80.44
61618;BME280;47518;51.776;9.370;2023-03-04T01:22:38;100947.22;;;3.32;80.33
61618;BME280;47518;51.776;9.370;2023-03-04T01:25:04;100948.94;;;3.33;79.86
61618;BME280;47518;51.776;9.370;2023-03-04T01:27:30;100946.78;;;3.38;80.23
61618;BME280;47518;51.776;9.370;2023-03-04T01:29:55;100938.34;;;3.43;80.14
61618;BME280;47518;51.776;9.370;2023-03-04T01:32:23;100938.75;;;3.49;80.52
61618;BME280;47518;51.776;9.370;2023-03-04T01:34:49;100942.19;;;3.51;80.81
61618;BME280;47518;51.776;9.370;2023-03-04T01:37:14;100934.75;;;3.55;79.43
61618;BME280;47518;51.776;9.370;2023-03-04T01:39:40;100928.28;;;3.34;79.88
61618;BME280;47518;51.776;9.370;2023-03-04T01:42:08;100933.34;;;3.14;81.21
61618;BME280;47518;51.776;9.370;2023-03-04T01:44:39;100927.78;;;3.29;81.18
61618;BME280;47518;51.776;9.370;2023-03-04T01:47:04;100916.56;;;3.11;81.01
61618;BME280;47518;51.776;9.370;2023-03-04T01:49:30;100916.13;;;3.41;80.50
61618;BME280;47518;51.776;9.370;2023-03-04T01:51:55;100916.47;;;3.36;80.83
61618;BME280;47518;51.776;9.370;2023-03-04T01:54:21;100919.56;;;3.19;81.09
61618;BME280;47518;51.776;9.370;2023-03-04T01:56:48;100910.53;;;3.20;81.39
61618;BME280;47518;51.776;9.370;2023-03-04T01:59:23;100908.25;;;3.03;82.21
61618;BME280;47518;51.776;9.370;2023-03-04T02:01:53;100900.13;;;3.15;82.57
61618;BME280;47518;51.776;9.370;2023-03-04T02:04:22;100901.66;;;3.31;81.51
61618;BME280;47518;51.776;9.370;2023-03-04T02:06:49;100886.31;;;3.44;81.05
61618;BME280;47518;51.776;9.370;2023-03-04T02:09:16;100890.09;;;3.41;80.92
61618;BME280;47518;51.776;9.370;2023-03-04T02:11:42;100892.28;;;3.12;81.72
61618;BME280;47518;51.776;9.370;2023-03-04T02:14:10;100902.63;;;3.30;81.33
61618;BME280;47518;51.776;9.370;2023-03-04T02:16:36;100888.97;;;3.33;82.33
61618;BME280;47518;51.776;9.370;2023-03-04T02:19:04;100892.09;;;3.50;80.55
61618;BME280;47518;51.776;9.370;2023-03-04T02:21:32;100886.16;;;3.34;80.81
61618;BME280;47518;51.776;9.370;2023-03-04T02:24:27;100884.28;;;3.47;80.76
61618;BME280;47518;51.776;9.370;2023-03-04T02:26:56;100882.38;;;3.02;81.44
61618;BME280;47518;51.776;9.370;2023-03-04T02:29:22;100890.47;;;3.37;81.61
61618;BME280;47518;51.776;9.370;2023-03-04T02:31:50;100880.09;;;3.43;81.56
61618;BME280;47518;51.776;9.370;2023-03-04T02:34:21;100874.16;;;3.27;82.24
61618;BME280;47518;51.776;9.370;2023-03-04T02:36:50;100874.59;;;3.45;81.51
61618;BME280;47518;51.776;9.370;2023-03-04T02:42:08;100861.53;;;3.51;80.78
61618;BME280;47518;51.776;9.370;2023-03-04T02:44:36;100866.69;;;3.55;81.10
61618;BME280;47518;51.776;9.370;2023-03-04T02:47:03;100867.41;;;3.57;81.21
61618;BME280;47518;51.776;9.370;2023-03-04T02:49:31;100855.56;;;3.48;81.81
61618;BME280;47518;51.776;9.370;2023-03-04T02:52:00;100847.03;;;3.65;81.42
61618;BME280;47518;51.776;9.370;2023-03-04T02:54:26;100856.31;;;3.61;80.87
61618;BME280;47518;51.776;9.370;2023-03-04T02:56:56;100856.06;;;3.64;81.05
61618;BME280;47518;51.776;9.370;2023-03-04T02:59:22;100852.91;;;3.59;79.88
61618;BME280;47518;51.776;9.370;2023-03-04T03:01:48;100844.31;;;3.54;80.69
61618;BME280;47518;51.776;9.370;2023-03-04T03:04:14;100855.91;;;3.55;80.76
61618;BME280;47518;51.776;9.370;2023-03-04T03:06:40;100846.88;;;3.56;79.89
61618;BME280;47518;51.776;9.370;2023-03-04T03:09:06;100845.94;;;3.79;79.33
61618;BME280;47518;51.776;9.370;2023-03-04T03:11:32;100850.72;;;3.75;80.34
61618;BME280;47518;51.776;9.370;2023-03-04T03:13:57;100852.84;;;4.05;78.53
61618;BME280;47518;51.776;9.370;2023-03-04T03:16:23;100846.34;;;3.97;78.65
61618;BME280;47518;51.776;9.370;2023-03-04T03:18:52;100839.00;;;4.10;78.64
61618;BME280;47518;51.776;9.370;2023-03-04T03:21:18;100840.59;;;4.13;78.13
61618;BME280;47518;51.776;9.370;2023-03-04T03:23:43;100846.81;;;4.24;76.84
61618;BME280;47518;51.776;9.370;2023-03-04T03:26:09;100845.50;;;3.96;77.18
61618;BME280;47518;51.776;9.370;2023-03-04T03:28:35;100840.44;;;3.92;77.25
61618;BME280;47518;51.776;9.370;2023-03-04T03:31:00;100839.38;;;4.05;76.76
61618;BME280;47518;51.776;9.370;2023-03-04T03:33:26;100835.47;;;4.09;76.65
61618;BME280;47518;51.776;9.370;2023-03-04T03:35:52;100833.88;;;4.18;76.16
61618;BME280;47518;51.776;9.370;2023-03-04T03:38:17;100838.88;;;3.89;77.23
61618;BME280;47518;51.776;9.370;2023-03-04T03:40:43;100841.56;;;4.00;77.04
61618;BME280;47518;51.776;9.370;2023-03-04T03:43:08;100844.00;;;4.15;76.22
61618;BME280;47518;51.776;9.370;2023-03-04T03:45:34;100843.16;;;4.36;76.32
61618;BME280;47518;51.776;9.370;2023-03-04T03:47:59;100842.53;;;4.33;74.59
61618;BME280;47518;51.776;9.370;2023-03-04T03:50:24;100834.47;;;4.33;75.33
61618;BME280;47518;51.776;9.370;2023-03-04T03:52:52;100830.78;;;4.45;74.87
61618;BME280;47518;51.776;9.370;2023-03-04T03:55:18;100837.13;;;4.55;74.11
61618;BME280;47518;51.776;9.370;2023-03-04T03:57:43;100832.00;;;4.63;74.56
61618;BME280;47518;51.776;9.370;2023-03-04T04:00:09;100821.13;;;4.43;73.79
61618;BME280;47518;51.776;9.370;2023-03-04T04:02:35;100833.34;;;4.58;73.80
61618;BME280;47518;51.776;9.370;2023-03-04T04:05:00;100834.44;;;4.55;73.78
61618;BME280;47518;51.776;9.370;2023-03-04T04:07:26;100831.16;;;4.52;73.99
61618;BME280;47518;51.776;9.370;2023-03-04T04:09:51;100826.22;;;4.57;73.71
61618;BME280;47518;51.776;9.370;2023-03-04T04:12:17;100821.84;;;4.56;73.23
61618;BME280;47518;51.776;9.370;2023-03-04T04:14:45;100820.72;;;4.58;73.84
61618;BME280;47518;51.776;9.370;2023-03-04T04:17:11;100827.56;;;4.62;73.77
61618;BME280;47518;51.776;9.370;2023-03-04T04:19:38;100829.53;;;4.60;73.38
61618;BME280;47518;51.776;9.370;2023-03-04T04:22:05;100820.94;;;4.66;73.83
61618;BME280;47518;51.776;9.370;2023-03-04T04:24:31;100815.69;;;4.65;73.97
61618;BME280;47518;51.776;9.370;2023-03-04T04:26:57;100818.84;;;4.70;74.26
61618;BME280;47518;51.776;9.370;2023-03-04T04:29:22;100823.91;;;4.63;73.95
61618;BME280;47518;51.776;9.370;2023-03-04T04:31:48;100821.22;;;4.63;74.32
61618;BME280;47518;51.776;9.370;2023-03-04T04:34:13;100811.41;;;4.51;72.92
61618;BME280;47518;51.776;9.370;2023-03-04T04:36:39;100807.66;;;4.43;73.40
61618;BME280;47518;51.776;9.370;2023-03-04T04:39:05;100808.47;;;4.65;73.05
61618;BME280;47518;51.776;9.370;2023-03-04T04:41:36;100804.03;;;4.76;74.18
61618;BME280;47518;51.776;9.370;2023-03-04T04:44:04;100804.84;;;4.87;74.07
61618;BME280;47518;51.776;9.370;2023-03-04T04:46:30;100807.16;;;4.92;73.77
61618;BME280;47518;51.776;9.370;2023-03-04T04:48:56;100806.06;;;4.83;73.42
61618;BME280;47518;51.776;9.370;2023-03-04T04:51:21;100804.78;;;4.66;73.42
61618;BME280;47518;51.776;9.370;2023-03-04T04:53:47;100811.31;;;4.53;74.05
61618;BME280;47518;51.776;9.370;2023-03-04T04:56:18;100806.44;;;4.47;73.77
61618;BME280;47518;51.776;9.370;2023-03-04T04:58:47;100806.13;;;4.61;73.67
61618;BME280;47518;51.776;9.370;2023-03-04T05:01:13;100807.50;;;4.66;74.30
61618;BME280;47518;51.776;9.370;2023-03-04T05:03:39;100799.44;;;4.55;73.57
61618;BME280;47518;51.776;9.370;2023-03-04T05:06:31;100805.31;;;4.49;73.96
61618;BME280;47518;51.776;9.370;2023-03-04T05:09:05;100807.28;;;4.47;73.30
61618;BME280;47518;51.776;9.370;2023-03-04T05:11:31;100798.97;;;4.39;74.27
61618;BME280;47518;51.776;9.370;2023-03-04T05:13:57;100805.28;;;4.60;73.64
61618;BME280;47518;51.776;9.370;2023-03-04T05:16:25;100801.91;;;4.47;73.79
61618;BME280;47518;51.776;9.370;2023-03-04T05:18:50;100806.28;;;4.59;73.63
61618;BME280;47518;51.776;9.370;2023-03-04T05:21:16;100812.44;;;4.82;73.96
61618;BME280;47518;51.776;9.370;2023-03-04T05:23:42;100811.41;;;4.51;73.16
61618;BME280;47518;51.776;9.370;2023-03-04T05:26:11;100814.81;;;4.76;73.40
61618;BME280;47518;51.776;9.370;2023-03-04T05:28:44;100814.88;;;4.85;72.92
61618;BME280;47518;51.776;9.370;2023-03-04T05:31:09;100811.53;;;4.61;73.88
61618;BME280;47518;51.776;9.370;2023-03-04T05:33:35;100802.03;;;4.46;74.04
61618;BME280;47518;51.776;9.370;2023-03-04T05:36:01;100806.09;;;4.72;73.74
61618;BME280;47518;51.776;9.370;2023-03-04T05:38:27;100803.75;;;4.90;73.54
61618;BME280;47518;51.776;9.370;2023-03-04T05:40:58;100803.34;;;4.94;74.30
61618;BME280;47518;51.776;9.370;2023-03-04T05:43:25;100802.34;;;4.75;73.66
61618;BME280;47518;51.776;9.370;2023-03-04T05:45:50;100797.94;;;4.62;74.20
61618;BME280;47518;51.776;9.370;2023-03-04T05:48:16;100802.75;;;4.91;74.10
61618;BME280;47518;51.776;9.370;2023-03-04T05:50:41;100795.91;;;4.44;74.95
61618;BME280;47518;51.776;9.370;2023-03-04T05:53:07;100800.66;;;4.51;75.23
61618;BME280;47518;51.776;9.370;2023-03-04T05:55:35;100802.47;;;4.62;74.51
61618;BME280;47518;51.776;9.370;2023-03-04T05:58:00;100797.13;;;4.83;73.64
61618;BME280;47518;51.776;9.370;2023-03-04T06:00:26;100805.22;;;4.83;74.72
61618;BME280;47518;51.776;9.370;2023-03-04T06:02:52;100811.97;;;4.88;74.52
61618;BME280;47518;51.776;9.370;2023-03-04T06:05:17;100809.97;;;4.90;74.12
61618;BME280;47518;51.776;9.370;2023-03-04T06:07:43;100811.56;;;4.93;73.88
61618;BME280;47518;51.776;9.370;2023-03-04T06:25:09;100816.00;;;3.61;81.30
61618;BME280;47518;51.776;9.370;2023-03-04T06:27:35;100817.56;;;3.64;81.37
61618;BME280;47518;51.776;9.370;2023-03-04T06:30:01;100817.84;;;3.83;80.87
61618;BME280;47518;51.776;9.370;2023-03-04T06:32:26;100820.56;;;4.05;80.33
61618;BME280;47518;51.776;9.370;2023-03-04T06:34:52;100826.53;;;4.20;79.51
61618;BME280;47518;51.776;9.370;2023-03-04T06:37:17;100818.81;;;4.27;78.81
61618;BME280;47518;51.776;9.370;2023-03-04T06:39:43;100831.53;;;4.25;79.21
61618;BME280;47518;51.776;9.370;2023-03-04T06:42:10;100827.88;;;4.15;79.60
61618;BME280;47518;51.776;9.370;2023-03-04T06:44:35;100819.47;;;4.62;78.09
61618;BME280;47518;51.776;9.370;2023-03-04T06:47:01;100817.56;;;4.53;77.66
61618;BME280;47518;51.776;9.370;2023-03-04T06:49:26;100826.78;;;4.17;79.86
61618;BME280;47518;51.776;9.370;2023-03-04T06:51:52;100824.28;;;4.48;78.90
61618;BME280;47518;51.776;9.370;2023-03-04T06:54:17;100826.16;;;4.14;79.92
61618;BME280;47518;51.776;9.370;2023-03-04T06:56:43;100816.38;;;4.13;80.48
61618;BME280;47518;51.776;9.370;2023-03-04T06:59:08;100817.34;;;4.00;80.90
61618;BME280;47518;51.776;9.370;2023-03-04T07:01:34;100825.66;;;3.86;81.89
61618;BME280;47518;51.776;9.370;2023-03-04T07:04:00;100830.34;;;3.95;81.49
61618;BME280;47518;51.776;9.370;2023-03-04T07:06:33;100820.31;;;4.08;81.30
61618;BME280;47518;51.776;9.370;2023-03-04T07:09:07;100817.72;;;4.41;79.78
61618;BME280;47518;51.776;9.370;2023-03-04T07:11:33;100815.09;;;4.50;79.20
61618;BME280;47518;51.776;9.370;2023-03-04T07:13:58;100799.75;;;4.19;79.87
61618;BME280;47518;51.776;9.370;2023-03-04T07:16:26;100814.00;;;4.53;78.85
61618;BME280;47518;51.776;9.370;2023-03-04T07:18:52;100815.28;;;4.81;78.80
61618;BME280;47518;51.776;9.370;2023-03-04T07:21:17;100810.56;;;4.94;77.00
61618;BME280;47518;51.776;9.370;2023-03-04T07:23:43;100816.13;;;5.13;76.13
61618;BME280;47518;51.776;9.370;2023-03-04T07:26:09;100804.69;;;5.00;76.31
61618;BME280;47518;51.776;9.370;2023-03-04T07:28:37;100812.38;;;5.05;77.02
61618;BME280;47518;51.776;9.370;2023-03-04T07:44:16;100821.81;;;4.67;78.27
61618;BME280;47518;51.776;9.370;2023-03-04T07:46:41;100816.66;;;4.75;77.91
61618;BME280;47518;51.776;9.370;2023-03-04T07:49:07;100811.31;;;4.53;78.89
61618;BME280;47518;51.776;9.370;2023-03-04T07:51:32;100821.00;;;4.44;80.41
61618;BME280;47518;51.776;9.370;2023-03-04T07:53:59;100810.97;;;4.35;80.65
61618;BME280;47518;51.776;9.370;2023-03-04T07:56:29;100815.25;;;4.15;81.52
61618;BME280;47518;51.776;9.370;2023-03-04T07:58:55;100815.34;;;4.58;81.26
61618;BME280;47518;51.776;9.370;2023-03-04T08:01:24;100819.63;;;4.50;80.38
61618;BME280;47518;51.776;9.370;2023-03-04T08:03:50;100817.47;;;4.87;79.62
61618;BME280;47518;51.776;9.370;2023-03-04T08:06:18;100810.16;;;4.78;79.24
61618;BME280;47518;51.776;9.370;2023-03-04T08:08:44;100815.63;;;4.87;79.47
61618;BME280;47518;51.776;9.370;2023-03-04T08:11:12;100811.84;;;4.79;79.68
61618;BME280;47518;51.776;9.370;2023-03-04T08:13:38;100813.22;;;4.62;80.98
61618;BME280;47518;51.776;9.370;2023-03-04T08:16:04;100813.66;;;4.46;81.97
61618;BME280;47518;51.776;9.370;2023-03-04T08:18:30;100809.47;;;4.53;82.36
61618;BME280;47518;51.776;9.370;2023-03-04T08:20:55;100802.13;;;4.55;81.89
61618;BME280;47518;51.776;9.370;2023-03-04T08:23:21;100808.13;;;4.48;82.70
61618;BME280;47518;51.776;9.370;2023-03-04T08:25:46;100809.38;;;4.44;83.02
61618;BME280;47518;51.776;9.370;2023-03-04T08:28:15;100809.50;;;4.42;83.01
61618;BME280;47518;51.776;9.370;2023-03-04T08:30:41;100793.31;;;4.64;82.05
61618;BME280;47518;51.776;9.370;2023-03-04T08:33:07;100808.72;;;4.51;82.34
61618;BME280;47518;51.776;9.370;2023-03-04T08:35:36;100811.22;;;4.43;83.08
61618;BME280;47518;51.776;9.370;2023-03-04T08:38:02;100809.63;;;4.84;81.44
61618;BME280;47518;51.776;9.370;2023-03-04T08:40:27;100811.00;;;5.10;80.73
61618;BME280;47518;51.776;9.370;2023-03-04T08:42:53;100806.75;;;4.64;82.16
61618;BME280;47518;51.776;9.370;2023-03-04T08:45:18;100805.13;;;4.73;82.23
61618;BME280;47518;51.776;9.370;2023-03-04T08:47:44;100808.38;;;5.20;80.68
61618;BME280;47518;51.776;9.370;2023-03-04T08:50:09;100811.53;;;5.25;80.48
61618;BME280;47518;51.776;9.370;2023-03-04T08:52:35;100804.78;;;4.66;83.05
61618;BME280;47518;51.776;9.370;2023-03-04T08:55:01;100806.88;;;4.95;81.62
61618;BME280;47518;51.776;9.370;2023-03-04T08:57:26;100802.22;;;5.50;80.39
61618;BME280;47518;51.776;9.370;2023-03-04T08:59:51;100804.53;;;5.85;78.82
61618;BME280;47518;51.776;9.370;2023-03-04T09:02:17;100802.78;;;5.74;78.95
61618;BME280;47518;51.776;9.370;2023-03-04T09:04:42;100801.19;;;6.23;77.65
61618;BME280;47518;51.776;9.370;2023-03-04T09:07:07;100791.13;;;6.35;77.57
61618;BME280;47518;51.776;9.370;2023-03-04T09:09:34;100792.97;;;5.94;76.92
61618;BME280;47518;51.776;9.370;2023-03-04T09:11:59;100797.81;;;5.49;79.80
61618;BME280;47518;51.776;9.370;2023-03-04T09:14:25;100805.63;;;5.52;80.53
61618;BME280;47518;51.776;9.370;2023-03-04T09:16:50;100802.34;;;5.48;81.40
61618;BME280;47518;51.776;9.370;2023-03-04T09:19:15;100795.25;;;5.68;80.29
61618;BME280;47518;51.776;9.370;2023-03-04T09:21:41;100797.56;;;5.82;80.70
61618;BME280;47518;51.776;9.370;2023-03-04T09:24:06;100798.25;;;5.75;80.52
61618;BME280;47518;51.776;9.370;2023-03-04T09:26:35;100794.72;;;5.33;82.78
61618;BME280;47518;51.776;9.370;2023-03-04T09:29:01;100793.63;;;5.66;81.72
61618;BME280;47518;51.776;9.370;2023-03-04T09:31:27;100796.34;;;5.66;81.41
61618;BME280;47518;51.776;9.370;2023-03-04T09:33:55;100789.88;;;5.78;81.08
61618;BME280;47518;51.776;9.370;2023-03-04T09:36:31;100791.28;;;5.72;81.93
61618;BME280;47518;51.776;9.370;2023-03-04T09:39:01;100796.31;;;5.56;82.14
61618;BME280;47518;51.776;9.370;2023-03-04T09:41:43;100796.94;;;5.69;81.80
61618;BME280;47518;51.776;9.370;2023-03-04T09:44:31;100791.13;;;5.74;82.07
61618;BME280;47518;51.776;9.370;2023-03-04T09:47:00;100779.44;;;5.43;82.89
61618;BME280;47518;51.776;9.370;2023-03-04T09:49:27;100786.34;;;5.15;84.74
61618;BME280;47518;51.776;9.370;2023-03-04T10:03:31;100778.13;;;5.58;84.80
61618;BME280;47518;51.776;9.370;2023-03-04T10:06:10;100782.81;;;5.35;85.40
61618;BME280;47518;51.776;9.370;2023-03-04T10:14:37;100776.06;;;5.71;84.76
61618;BME280;47518;51.776;9.370;2023-03-04T10:17:11;100784.47;;;5.47;86.47
61618;BME280;47518;51.776;9.370;2023-03-04T10:20:00;100771.06;;;5.67;86.10
61618;BME280;47518;51.776;9.370;2023-03-04T10:25:16;100774.81;;;5.96;82.67
61618;BME280;47518;51.776;9.370;2023-03-04T10:27:44;100776.28;;;5.59;85.67
61618;BME280;47518;51.776;9.370;2023-03-04T10:30:35;100776.09;;;6.02;84.65
61618;BME280;47518;51.776;9.370;2023-03-04T10:33:18;100782.66;;;6.09;83.50
61618;BME280;47518;51.776;9.370;2023-03-04T10:35:47;100772.75;;;6.19;83.56
61618;BME280;47518;51.776;9.370;2023-03-04T10:38:18;100784.84;;;6.15;84.03
61618;BME280;47518;51.776;9.370;2023-03-04T10:40:44;100783.38;;;6.51;83.23
61618;BME280;47518;51.776;9.370;2023-03-04T10:43:15;100771.41;;;6.54;82.23
61618;BME280;47518;51.776;9.370;2023-03-04T10:45:41;100765.09;;;6.24;82.52
61618;BME280;47518;51.776;9.370;2023-03-04T10:48:17;100776.66;;;5.96;86.00
61618;BME280;47518;51.776;9.370;2023-03-04T10:50:43;100772.94;;;5.97;85.44
61618;BME280;47518;51.776;9.370;2023-03-04T10:53:24;100767.72;;;5.53;87.62
61618;BME280;47518;51.776;9.370;2023-03-04T10:55:52;100768.72;;;6.04;85.43
61618;BME280;47518;51.776;9.370;2023-03-04T10:58:19;100767.44;;;5.47;87.74
61618;BME280;47518;51.776;9.370;2023-03-04T11:00:58;100757.41;;;5.59;88.31
61618;BME280;47518;51.776;9.370;2023-03-04T11:16:32;100751.88;;;6.21;85.59
61618;BME280;47518;51.776;9.370;2023-03-04T11:19:10;100757.31;;;5.91;85.72
61618;BME280;47518;51.776;9.370;2023-03-04T11:21:38;100758.34;;;6.49;84.73
61618;BME280;47518;51.776;9.370;2023-03-04T11:24:12;100747.94;;;6.44;84.20
61618;BME280;47518;51.776;9.370;2023-03-04T11:29:41;100754.53;;;6.11;84.93
61618;BME280;47518;51.776;9.370;2023-03-04T11:45:19;100739.31;;;6.80;80.98
61618;BME280;47518;51.776;9.370;2023-03-04T11:50:53;100729.47;;;6.69;79.97
61618;BME280;47518;51.776;9.370;2023-03-04T11:53:30;100717.09;;;7.05;79.23
61618;BME280;47518;51.776;9.370;2023-03-04T11:56:06;100728.19;;;7.02;79.02
61618;BME280;47518;51.776;9.370;2023-03-04T11:59:08;100719.63;;;7.26;76.79
61618;BME280;47518;51.776;9.370;2023-03-04T12:31:06;100706.63;;;5.94;84.48
61618;BME280;47518;51.776;9.370;2023-03-04T12:47:25;100664.88;;;7.51;76.12
61618;BME280;47518;51.776;9.370;2023-03-04T12:55:37;100660.06;;;7.82;72.50
61618;BME280;47518;51.776;9.370;2023-03-04T12:58:05;100656.00;;;7.69;72.84
61618;BME280;47518;51.776;9.370;2023-03-04T13:19:00;100656.13;;;7.95;71.51
61618;BME280;47518;51.776;9.370;2023-03-04T13:21:33;100641.94;;;8.28;69.82
61618;BME280;47518;51.776;9.370;2023-03-04T13:24:46;100644.66;;;7.83;70.74
61618;BME280;47518;51.776;9.370;2023-03-04T13:46:42;100640.69;;;7.50;72.81
61618;BME280;47518;51.776;9.370;2023-03-04T13:49:19;100642.69;;;7.48;74.06
61618;BME280;47518;51.776;9.370;2023-03-04T13:51:46;100655.25;;;7.39;76.34
61618;BME280;47518;51.776;9.370;2023-03-04T14:07:24;100644.31;;;6.46;80.95
61618;BME280;47518;51.776;9.370;2023-03-04T14:37:54;100626.97;;;6.58;76.38
61618;BME280;47518;51.776;9.370;2023-03-04T14:40:25;100626.50;;;6.91;76.44
61618;BME280;47518;51.776;9.370;2023-03-04T14:42:56;100632.66;;;6.74;76.79
61618;BME280;47518;51.776;9.370;2023-03-04T14:45:24;100635.34;;;6.74;78.74
61618;BME280;47518;51.776;9.370;2023-03-04T14:47:53;100642.47;;;6.46;79.31
61618;BME280;47518;51.776;9.370;2023-03-04T14:50:24;100635.66;;;6.32;78.77
61618;BME280;47518;51.776;9.370;2023-03-04T14:53:03;100632.50;;;6.08;79.29
61618;BME280;47518;51.776;9.370;2023-03-04T15:09:15;100615.59;;;6.06;78.31
61618;BME280;47518;51.776;9.370;2023-03-04T15:14:46;100608.34;;;6.35;75.26
61618;BME280;47518;51.776;9.370;2023-03-04T15:17:35;100606.53;;;6.26;75.51
61618;BME280;47518;51.776;9.370;2023-03-04T15:23:01;100600.84;;;6.39;75.13
61618;BME280;47518;51.776;9.370;2023-03-04T15:25:28;100615.16;;;6.68;74.89
61618;BME280;47518;51.776;9.370;2023-03-04T15:27:55;100606.50;;;6.55;74.35
61618;BME280;47518;51.776;9.370;2023-03-04T15:30:25;100606.06;;;6.60;72.57
61618;BME280;47518;51.776;9.370;2023-03-04T15:32:53;100609.06;;;6.57;70.94
61618;BME280;47518;51.776;9.370;2023-03-04T15:35:19;100607.91;;;6.69;69.23
61618;BME280;47518;51.776;9.370;2023-03-04T15:37:48;100595.97;;;6.71;69.21
61618;BME280;47518;51.776;9.370;2023-03-04T15:40:26;100591.97;;;6.76;69.86
61618;BME280;47518;51.776;9.370;2023-03-04T15:42:54;100599.53;;;6.53;70.97
61618;BME280;47518;51.776;9.370;2023-03-04T15:45:24;100592.00;;;6.47;69.50
61618;BME280;47518;51.776;9.370;2023-03-04T15:47:50;100588.84;;;6.70;69.52
61618;BME280;47518;51.776;9.370;2023-03-04T15:50:17;100592.84;;;6.57;68.76
61618;BME280;47518;51.776;9.370;2023-03-04T15:52:46;100587.88;;;6.62;67.90
61618;BME280;47518;51.776;9.370;2023-03-04T15:55:16;100585.44;;;6.78;68.84
61618;BME280;47518;51.776;9.370;2023-03-04T15:57:45;100590.69;;;6.80;70.18
61618;BME280;47518;51.776;9.370;2023-03-04T16:00:12;100590.69;;;6.70;67.43
61618;BME280;47518;51.776;9.370;2023-03-04T16:02:38;100590.69;;;6.80;68.74
61618;BME280;47518;51.776;9.370;2023-03-04T16:05:05;100583.50;;;6.41;67.77
61618;BME280;47518;51.776;9.370;2023-03-04T16:07:31;100596.00;;;6.23;69.23
61618;BME280;47518;51.776;9.370;2023-03-04T16:10:01;100594.41;;;6.11;70.61
61618;BME280;47518;51.776;9.370;2023-03-04T16:12:28;100599.13;;;6.19;71.14
61618;BME280;47518;51.776;9.370;2023-03-04T16:14:57;100590.88;;;6.20;71.39
61618;BME280;47518;51.776;9.370;2023-03-04T16:17:25;100594.72;;;6.27;72.13
61618;BME280;47518;51.776;9.370;2023-03-04T16:19:51;100608.63;;;6.32;70.68
61618;BME280;47518;51.776;9.370;2023-03-04T16:22:20;100598.41;;;6.36;70.47
61618;BME280;47518;51.776;9.370;2023-03-04T16:24:48;100603.81;;;6.46;72.09
61618;BME280;47518;51.776;9.370;2023-03-04T16:27:15;100605.81;;;6.43;72.90
61618;BME280;47518;51.776;9.370;2023-03-04T16:29:46;100606.78;;;6.33;71.25
61618;BME280;47518;51.776;9.370;2023-03-04T16:32:13;100604.09;;;6.33;72.07
61618;BME280;47518;51.776;9.370;2023-03-04T16:34:38;100611.19;;;6.34;70.61
61618;BME280;47518;51.776;9.370;2023-03-04T16:37:06;100609.91;;;6.09;71.75
61618;BME280;47518;51.776;9.370;2023-03-04T16:39:37;100605.66;;;6.16;71.55
61618;BME280;47518;51.776;9.370;2023-03-04T16:42:03;100599.28;;;6.17;72.73
61618;BME280;47518;51.776;9.370;2023-03-04T16:44:31;100606.22;;;6.10;72.68
61618;BME280;47518;51.776;9.370;2023-03-04T16:46:57;100607.63;;;5.95;73.16
61618;BME280;47518;51.776;9.370;2023-03-04T16:49:22;100608.91;;;5.91;74.23
61618;BME280;47518;51.776;9.370;2023-03-04T16:51:48;100601.31;;;5.84;74.04
61618;BME280;47518;51.776;9.370;2023-03-04T16:54:18;100610.78;;;5.60;74.71
61618;BME280;47518;51.776;9.370;2023-03-04T16:56:48;100619.88;;;5.59;76.13